createdAt,value
2018-12-27T00:00:11.455Z,32.20
2018-12-27T00:03:30.625Z,34.70
2018-12-27T00:06:39.242Z,36.10
2018-12-27T00:09:47.759Z,36.47
2018-12-27T00:13:08.182Z,35.37
2018-12-27T00:16:28.945Z,35.43
2018-12-27T00:19:48.899Z,33.83
2018-12-27T00:23:11.376Z,37.83
2018-12-27T00:30:40.467Z,36.83
2018-12-27T00:33:49.317Z,36.03
2018-12-27T00:36:58.264Z,36.37
2018-12-27T00:40:08.150Z,39.07
2018-12-27T00:43:17.479Z,34.67
2018-12-27T00:46:38.449Z,36.23
2018-12-27T00:53:36.663Z,31.53
2018-12-27T00:57:07.869Z,33.23
2018-12-27T01:00:16.736Z,31.93
2018-12-27T01:03:25.608Z,32.43
2018-12-27T01:06:34.431Z,32.60
2018-12-27T01:09:43.270Z,33.17
2018-12-27T01:12:52.202Z,36.40
2018-12-27T01:16:02.298Z,31.80
2018-12-27T01:19:11.283Z,31.13
2018-12-27T01:22:20.213Z,30.03
2018-12-27T01:25:29.043Z,27.03
2018-12-27T01:28:38.057Z,33.57
2018-12-27T01:31:50.572Z,29.77
2018-12-27T01:34:57.638Z,31.43
2018-12-27T01:38:06.508Z,28.43
2018-12-27T01:41:15.375Z,27.10
2018-12-27T01:44:24.181Z,28.23
2018-12-27T01:47:32.983Z,29.20
2018-12-27T01:50:41.884Z,27.83
2018-12-27T01:54:01.362Z,29.17
2018-12-27T01:57:33.535Z,26.23
2018-12-27T02:00:42.466Z,32.07
2018-12-27T02:04:13.441Z,25.43
2018-12-27T02:07:33.423Z,32.67
2018-12-27T02:10:53.407Z,27.70
2018-12-27T02:14:24.365Z,28.50
2018-12-27T02:17:44.392Z,28.57
2018-12-27T02:20:53.197Z,30.27
2018-12-27T02:24:02.139Z,26.77
2018-12-27T02:27:11.052Z,30.13
2018-12-27T02:30:19.913Z,29.10
2018-12-27T02:33:35.216Z,28.40
2018-12-27T02:36:51.456Z,27.13
2018-12-27T02:40:00.376Z,28.43
2018-12-27T02:43:09.003Z,26.90
2018-12-27T02:46:36.981Z,28.93
2018-12-27T02:49:45.997Z,25.20
2018-12-27T02:52:54.918Z,31.93
2018-12-27T02:56:03.874Z,27.03
2018-12-27T02:59:14.840Z,28.53
2018-12-27T03:02:23.778Z,24.67
2018-12-27T03:05:32.583Z,25.10
2018-12-27T03:08:41.929Z,24.43
2018-12-27T03:15:30.281Z,27.67
2018-12-27T03:18:39.277Z,25.70
2018-12-27T03:22:24.820Z,23.50
2018-12-27T03:25:33.741Z,25.97
2018-12-27T03:28:42.782Z,26.67
2018-12-27T03:31:51.642Z,25.50
2018-12-27T03:35:00.457Z,27.27
2018-12-27T03:38:09.291Z,28.23
2018-12-27T03:41:18.173Z,25.50
2018-12-27T03:44:27.169Z,26.03
2018-12-27T03:48:00.387Z,30.73
2018-12-27T03:51:20.662Z,28.23
2018-12-27T03:54:29.640Z,28.53
2018-12-27T03:58:20.538Z,26.30
2018-12-27T04:01:51.086Z,27.87
2018-12-27T04:05:23.622Z,27.67
2018-12-27T04:08:31.130Z,30.67
2018-12-27T04:11:39.968Z,33.27
2018-12-27T04:14:48.858Z,33.10
2018-12-27T04:17:57.478Z,31.03
2018-12-27T04:21:06.005Z,27.43
2018-12-27T04:24:15.414Z,28.60
2018-12-27T04:27:24.071Z,31.10
2018-12-27T04:30:51.759Z,31.10
2018-12-27T04:34:00.065Z,29.73
2018-12-27T04:37:27.778Z,30.77
2018-12-27T04:40:36.486Z,25.13
2018-12-27T04:43:45.777Z,32.47
2018-12-27T04:51:02.746Z,28.97
2018-12-27T04:54:22.688Z,28.97
2018-12-27T04:57:42.542Z,29.23
2018-12-27T05:01:03.402Z,30.40
2018-12-27T05:04:18.116Z,27.97
2018-12-27T05:07:22.238Z,30.97
2018-12-27T05:10:30.739Z,34.70
2018-12-27T05:13:39.353Z,34.63
2018-12-27T05:16:48.040Z,32.83
2018-12-27T05:19:56.611Z,34.97
2018-12-27T05:23:27.402Z,31.40
2018-12-27T05:26:47.976Z,33.33
2018-12-27T05:29:56.626Z,32.37
2018-12-27T05:33:05.182Z,28.40
2018-12-27T05:36:13.649Z,29.80
2018-12-27T05:43:37.560Z,30.67
2018-12-27T05:46:57.390Z,28.27
2018-12-27T05:50:05.925Z,28.70
2018-12-27T05:53:14.505Z,28.57
2018-12-27T05:56:22.988Z,27.10
2018-12-27T05:59:31.650Z,28.40
2018-12-27T06:03:15.669Z,27.27
2018-12-27T06:10:41.435Z,24.70
2018-12-27T06:14:16.537Z,24.07
2018-12-27T06:17:36.729Z,27.27
2018-12-27T06:20:56.715Z,25.70
2018-12-27T06:24:41.993Z,24.53
2018-12-27T06:28:06.226Z,25.33
2018-12-27T06:31:14.722Z,23.17
2018-12-27T06:34:41.357Z,22.20
2018-12-27T06:38:11.130Z,21.63
2018-12-27T06:41:30.999Z,23.07
2018-12-27T06:45:16.117Z,23.03
2018-12-27T06:48:48.357Z,22.30
2018-12-27T06:52:18.985Z,21.37
2018-12-27T06:55:38.192Z,25.43
2018-12-27T06:58:46.771Z,21.70
2018-12-27T07:01:55.230Z,21.77
2018-12-27T07:05:03.727Z,22.00
2018-12-27T07:08:12.204Z,19.40
2018-12-27T07:11:47.176Z,19.67
2018-12-27T07:19:20.619Z,23.43
2018-12-27T07:30:44.341Z,23.40
2018-12-27T07:45:38.251Z,22.73
2018-12-27T07:48:57.328Z,24.67
2018-12-27T07:52:05.974Z,25.03
2018-12-27T07:55:14.563Z,24.73
2018-12-27T07:58:23.177Z,25.33
2018-12-27T08:01:31.652Z,26.03
2018-12-27T08:04:40.139Z,27.83
2018-12-27T08:24:29.848Z,31.63
2018-12-27T09:19:50.810Z,36.63
2018-12-27T09:22:59.279Z,37.07
2018-12-27T09:26:07.760Z,39.87
2018-12-27T09:29:16.378Z,36.63
2018-12-27T09:32:24.962Z,30.10
2018-12-27T09:35:33.489Z,34.60
2018-12-27T09:38:40.472Z,36.67
2018-12-27T09:41:48.959Z,35.97
2018-12-27T09:44:57.475Z,35.40
2018-12-27T09:48:05.998Z,35.13
2018-12-27T09:51:14.569Z,31.73
2018-12-27T09:54:23.053Z,32.27
2018-12-27T10:05:16.838Z,36.00
2018-12-27T10:19:50.109Z,32.70
2018-12-27T10:26:51.472Z,33.93
2018-12-27T10:34:33.768Z,34.30
2018-12-27T10:45:29.411Z,34.97
2018-12-27T10:48:37.922Z,35.07
2018-12-27T10:51:46.386Z,39.10
2018-12-27T11:49:52.368Z,37.57
2018-12-27T12:04:33.412Z,38.93
2018-12-27T12:15:17.001Z,39.30
2018-12-27T13:05:12.837Z,40.03
2018-12-27T13:19:49.136Z,36.83
2018-12-27T15:04:30.007Z,28.00
2018-12-27T15:59:09.097Z,32.10
2018-12-27T16:02:17.601Z,32.10
2018-12-27T16:16:48.877Z,32.27
2018-12-27T16:20:07.858Z,32.37
2018-12-27T16:23:16.359Z,31.67
2018-12-27T16:26:24.850Z,29.20
2018-12-27T16:29:33.411Z,32.90
2018-12-27T16:32:41.925Z,31.73
2018-12-27T16:36:00.975Z,32.33
2018-12-27T16:39:09.770Z,29.40
2018-12-27T16:42:21.751Z,34.33
2018-12-27T16:45:28.620Z,33.63
2018-12-27T16:48:37.109Z,32.10
2018-12-27T16:51:45.594Z,31.00
2018-12-27T16:55:04.451Z,32.13
2018-12-27T16:58:13.018Z,30.37
2018-12-27T17:01:21.522Z,32.30
2018-12-27T17:04:30.022Z,32.53
2018-12-27T19:46:48.020Z,35.67
2018-12-27T19:50:06.895Z,31.63
2018-12-27T19:53:15.414Z,34.97
2018-12-27T19:56:23.913Z,33.10
2018-12-27T20:07:20.919Z,37.30
2018-12-27T20:10:39.958Z,34.67
2018-12-27T20:25:31.264Z,35.53
2018-12-27T20:28:39.785Z,38.50
2018-12-27T20:31:48.290Z,37.97
2018-12-27T20:34:56.859Z,37.40
2018-12-27T20:38:06.800Z,42.17
2018-12-27T20:41:15.665Z,41.90
2018-12-27T20:44:34.609Z,37.53
2018-12-27T21:07:10.793Z,38.73
2018-12-27T21:10:18.491Z,37.33
2018-12-27T21:13:27.009Z,40.00
2018-12-27T21:16:35.756Z,39.30
2018-12-27T21:19:44.344Z,39.57
2018-12-27T21:22:52.891Z,38.13
2018-12-27T22:35:11.276Z,43.23
2018-12-27T22:38:19.933Z,40.97
2018-12-27T22:41:28.558Z,44.50
2018-12-27T22:44:37.074Z,41.23
2018-12-27T22:47:45.751Z,45.93
2018-12-27T22:50:54.357Z,43.00
2018-12-27T22:54:02.937Z,44.83
2018-12-27T22:57:10.695Z,44.33
2018-12-27T23:00:36.337Z,43.70
2018-12-27T23:15:14.448Z,44.27
2018-12-27T23:38:39.736Z,40.80
2018-12-27T23:41:48.209Z,38.80
